sensor_id;sensor_type;location;lat;lon;timestamp;P1;durP1;ratioP1;P2;durP2;ratioP2
7989;SDS011;4040;42.848;23.034;2022-11-06T00:02:08;40.00;;;22.33;;
7989;SDS011;4040;42.848;23.034;2022-11-06T00:07:57;43.73;;;23.27;;
7989;SDS011;4040;42.848;23.034;2022-11-06T00:13:46;40.57;;;22.87;;
7989;SDS011;4040;42.848;23.034;2022-11-06T00:19:36;34.13;;;20.13;;
7989;SDS011;4040;42.848;23.034;2022-11-06T00:25:25;36.43;;;20.63;;
7989;SDS011;4040;42.848;23.034;2022-11-06T00:31:14;29.53;;;18.83;;
7989;SDS011;4040;42.848;23.034;2022-11-06T00:37:05;29.93;;;18.00;;
7989;SDS011;4040;42.848;23.034;2022-11-06T00:42:54;36.33;;;20.50;;
7989;SDS011;4040;42.848;23.034;2022-11-06T00:48:43;38.73;;;20.43;;
7989;SDS011;4040;42.848;23.034;2022-11-06T00:54:34;34.20;;;17.97;;
7989;SDS011;4040;42.848;23.034;2022-11-06T01:00:22;29.43;;;17.67;;
7989;SDS011;4040;42.848;23.034;2022-11-06T01:10:34;29.90;;;17.70;;
7989;SDS011;4040;42.848;23.034;2022-11-06T01:16:24;31.23;;;18.40;;
7989;SDS011;4040;42.848;23.034;2022-11-06T01:22:13;46.40;;;24.43;;
7989;SDS011;4040;42.848;23.034;2022-11-06T01:28:03;50.33;;;25.00;;
7989;SDS011;4040;42.848;23.034;2022-11-06T01:33:52;46.47;;;23.10;;
7989;SDS011;4040;42.848;23.034;2022-11-06T01:39:42;38.10;;;20.93;;
7989;SDS011;4040;42.848;23.034;2022-11-06T01:45:34;39.63;;;21.40;;
7989;SDS011;4040;42.848;23.034;2022-11-06T01:51:27;30.07;;;18.33;;
7989;SDS011;4040;42.848;23.034;2022-11-06T01:57:18;25.87;;;16.37;;
7989;SDS011;4040;42.848;23.034;2022-11-06T02:03:08;25.97;;;16.53;;
7989;SDS011;4040;42.848;23.034;2022-11-06T02:13:23;33.10;;;18.90;;
7989;SDS011;4040;42.848;23.034;2022-11-06T02:19:26;44.97;;;23.57;;
7989;SDS011;4040;42.848;23.034;2022-11-06T02:25:29;35.50;;;20.33;;
7989;SDS011;4040;42.848;23.034;2022-11-06T02:31:29;36.53;;;20.60;;
7989;SDS011;4040;42.848;23.034;2022-11-06T02:37:23;37.37;;;19.83;;
7989;SDS011;4040;42.848;23.034;2022-11-06T02:43:17;36.13;;;20.63;;
7989;SDS011;4040;42.848;23.034;2022-11-06T02:49:10;37.13;;;20.00;;
7989;SDS011;4040;42.848;23.034;2022-11-06T02:55:05;26.23;;;16.77;;
7989;SDS011;4040;42.848;23.034;2022-11-06T03:00:57;23.50;;;14.73;;
7989;SDS011;4040;42.848;23.034;2022-11-06T03:06:51;28.33;;;16.03;;
7989;SDS011;4040;42.848;23.034;2022-11-06T03:12:49;30.93;;;19.23;;
7989;SDS011;4040;42.848;23.034;2022-11-06T03:18:45;29.80;;;17.87;;
7989;SDS011;4040;42.848;23.034;2022-11-06T03:24:45;32.97;;;17.43;;
7989;SDS011;4040;42.848;23.034;2022-11-06T03:30:38;37.20;;;21.40;;
7989;SDS011;4040;42.848;23.034;2022-11-06T03:36:30;41.60;;;22.40;;
7989;SDS011;4040;42.848;23.034;2022-11-06T03:42:25;38.27;;;21.00;;
7989;SDS011;4040;42.848;23.034;2022-11-06T03:48:18;37.93;;;22.43;;
7989;SDS011;4040;42.848;23.034;2022-11-06T03:54:11;40.77;;;23.13;;
7989;SDS011;4040;42.848;23.034;2022-11-06T04:00:05;30.43;;;18.73;;
7989;SDS011;4040;42.848;23.034;2022-11-06T04:05:55;29.33;;;15.67;;
7989;SDS011;4040;42.848;23.034;2022-11-06T04:16:12;25.07;;;16.87;;
7989;SDS011;4040;42.848;23.034;2022-11-06T04:22:16;28.20;;;16.53;;
7989;SDS011;4040;42.848;23.034;2022-11-06T04:28:17;25.77;;;15.80;;
7989;SDS011;4040;42.848;23.034;2022-11-06T04:34:19;18.47;;;11.20;;
7989;SDS011;4040;42.848;23.034;2022-11-06T04:40:16;14.47;;;8.73;;
7989;SDS011;4040;42.848;23.034;2022-11-06T04:46:11;15.77;;;9.30;;
7989;SDS011;4040;42.848;23.034;2022-11-06T04:52:05;12.03;;;9.30;;
7989;SDS011;4040;42.848;23.034;2022-11-06T04:57:57;13.40;;;9.93;;
7989;SDS011;4040;42.848;23.034;2022-11-06T05:03:45;18.60;;;11.50;;
7989;SDS011;4040;42.848;23.034;2022-11-06T05:09:36;15.20;;;11.30;;
7989;SDS011;4040;42.848;23.034;2022-11-06T05:15:24;16.37;;;11.53;;
7989;SDS011;4040;42.848;23.034;2022-11-06T05:21:14;21.37;;;12.93;;
7989;SDS011;4040;42.848;23.034;2022-11-06T05:27:21;19.17;;;12.77;;
7989;SDS011;4040;42.848;23.034;2022-11-06T05:33:10;15.70;;;10.80;;
7989;SDS011;4040;42.848;23.034;2022-11-06T05:38:58;16.37;;;10.40;;
7989;SDS011;4040;42.848;23.034;2022-11-06T05:44:49;22.13;;;11.83;;
7989;SDS011;4040;42.848;23.034;2022-11-06T05:50:37;13.20;;;10.10;;
7989;SDS011;4040;42.848;23.034;2022-11-06T05:56:26;15.47;;;10.23;;
7989;SDS011;4040;42.848;23.034;2022-11-06T06:02:16;14.20;;;10.67;;
7989;SDS011;4040;42.848;23.034;2022-11-06T06:08:05;32.10;;;17.83;;
7989;SDS011;4040;42.848;23.034;2022-11-06T06:18:07;30.83;;;20.67;;
7989;SDS011;4040;42.848;23.034;2022-11-06T06:23:57;31.50;;;19.67;;
7989;SDS011;4040;42.848;23.034;2022-11-06T06:29:46;19.80;;;12.50;;
7989;SDS011;4040;42.848;23.034;2022-11-06T06:35:36;19.63;;;12.93;;
7989;SDS011;4040;42.848;23.034;2022-11-06T06:41:24;19.13;;;11.90;;
7989;SDS011;4040;42.848;23.034;2022-11-06T06:47:13;18.90;;;12.73;;
7989;SDS011;4040;42.848;23.034;2022-11-06T06:53:05;20.13;;;12.00;;
7989;SDS011;4040;42.848;23.034;2022-11-06T06:58:53;21.83;;;10.73;;
7989;SDS011;4040;42.848;23.034;2022-11-06T07:04:42;14.13;;;10.03;;
7989;SDS011;4040;42.848;23.034;2022-11-06T07:10:32;17.77;;;10.73;;
7989;SDS011;4040;42.848;23.034;2022-11-06T07:20:43;15.83;;;11.30;;
7989;SDS011;4040;42.848;23.034;2022-11-06T07:26:33;22.23;;;12.03;;
7989;SDS011;4040;42.848;23.034;2022-11-06T07:32:22;16.80;;;11.70;;
7989;SDS011;4040;42.848;23.034;2022-11-06T07:38:10;19.00;;;11.75;;
7989;SDS011;4040;42.848;23.034;2022-11-06T07:44:00;18.85;;;12.10;;
7989;SDS011;4040;42.848;23.034;2022-11-06T07:49:49;17.57;;;12.33;;
7989;SDS011;4040;42.848;23.034;2022-11-06T07:55:37;16.23;;;12.63;;
7989;SDS011;4040;42.848;23.034;2022-11-06T08:15:19;26.37;;;12.77;;
7989;SDS011;4040;42.848;23.034;2022-11-06T08:21:08;19.13;;;12.47;;
7989;SDS011;4040;42.848;23.034;2022-11-06T08:26:57;24.92;;;13.88;;
7989;SDS011;4040;42.848;23.034;2022-11-06T08:32:47;23.40;;;15.10;;
7989;SDS011;4040;42.848;23.034;2022-11-06T08:38:36;15.55;;;11.35;;
7989;SDS011;4040;42.848;23.034;2022-11-06T08:44:25;16.83;;;11.02;;
7989;SDS011;4040;42.848;23.034;2022-11-06T08:50:15;14.52;;;10.07;;
7989;SDS011;4040;42.848;23.034;2022-11-06T08:56:04;12.52;;;9.15;;
7989;SDS011;4040;42.848;23.034;2022-11-06T09:01:55;15.20;;;8.77;;
7989;SDS011;4040;42.848;23.034;2022-11-06T09:07:45;18.38;;;11.93;;
7989;SDS011;4040;42.848;23.034;2022-11-06T09:17:55;17.63;;;9.40;;
7989;SDS011;4040;42.848;23.034;2022-11-06T09:23:46;14.20;;;9.32;;
7989;SDS011;4040;42.848;23.034;2022-11-06T09:29:36;13.77;;;9.63;;
7989;SDS011;4040;42.848;23.034;2022-11-06T09:35:27;11.05;;;9.25;;
7989;SDS011;4040;42.848;23.034;2022-11-06T09:41:19;15.48;;;11.07;;
7989;SDS011;4040;42.848;23.034;2022-11-06T09:47:16;18.60;;;11.88;;
7989;SDS011;4040;42.848;23.034;2022-11-06T09:53:10;16.60;;;11.25;;
7989;SDS011;4040;42.848;23.034;2022-11-06T09:59:05;15.38;;;10.98;;
7989;SDS011;4040;42.848;23.034;2022-11-06T10:05:01;17.85;;;10.82;;
7989;SDS011;4040;42.848;23.034;2022-11-06T10:10:58;14.95;;;10.73;;
7989;SDS011;4040;42.848;23.034;2022-11-06T10:13:41;12.10;;;9.30;;
7989;SDS011;4040;42.848;23.034;2022-11-06T10:19:43;12.18;;;9.90;;
7989;SDS011;4040;42.848;23.034;2022-11-06T10:25:41;13.85;;;9.85;;
7989;SDS011;4040;42.848;23.034;2022-11-06T10:31:34;14.50;;;9.93;;
7989;SDS011;4040;42.848;23.034;2022-11-06T10:37:31;12.73;;;10.77;;
7989;SDS011;4040;42.848;23.034;2022-11-06T10:43:28;13.17;;;10.87;;
7989;SDS011;4040;42.848;23.034;2022-11-06T10:49:24;16.33;;;12.02;;
7989;SDS011;4040;42.848;23.034;2022-11-06T10:55:36;26.70;;;19.33;;
7989;SDS011;4040;42.848;23.034;2022-11-06T11:01:33;39.65;;;21.17;;
7989;SDS011;4040;42.848;23.034;2022-11-06T11:07:22;15.00;;;11.80;;
7989;SDS011;4040;42.848;23.034;2022-11-06T11:13:13;10.47;;;7.43;;
7989;SDS011;4040;42.848;23.034;2022-11-06T11:19:14;11.37;;;8.93;;
7989;SDS011;4040;42.848;23.034;2022-11-06T11:25:17;11.23;;;8.13;;
7989;SDS011;4040;42.848;23.034;2022-11-06T11:31:14;7.63;;;6.05;;
7989;SDS011;4040;42.848;23.034;2022-11-06T11:37:05;5.63;;;5.07;;
7989;SDS011;4040;42.848;23.034;2022-11-06T11:42:54;6.40;;;5.77;;
7989;SDS011;4040;42.848;23.034;2022-11-06T11:49:09;6.93;;;5.87;;
7989;SDS011;4040;42.848;23.034;2022-11-06T11:55:13;7.73;;;5.70;;
7989;SDS011;4040;42.848;23.034;2022-11-06T12:01:03;9.43;;;6.85;;
7989;SDS011;4040;42.848;23.034;2022-11-06T12:20:58;8.10;;;6.37;;
7989;SDS011;4040;42.848;23.034;2022-11-06T12:26:50;7.17;;;6.40;;
7989;SDS011;4040;42.848;23.034;2022-11-06T12:32:50;6.00;;;5.43;;
7989;SDS011;4040;42.848;23.034;2022-11-06T12:38:50;8.27;;;5.05;;
7989;SDS011;4040;42.848;23.034;2022-11-06T12:44:41;8.30;;;4.72;;
7989;SDS011;4040;42.848;23.034;2022-11-06T12:50:33;4.75;;;4.22;;
7989;SDS011;4040;42.848;23.034;2022-11-06T12:56:29;4.72;;;3.38;;
7989;SDS011;4040;42.848;23.034;2022-11-06T13:02:28;5.20;;;3.17;;
7989;SDS011;4040;42.848;23.034;2022-11-06T13:08:30;5.10;;;3.17;;
7989;SDS011;4040;42.848;23.034;2022-11-06T13:14:29;6.47;;;3.95;;
7989;SDS011;4040;42.848;23.034;2022-11-06T13:20:25;3.83;;;3.50;;
7989;SDS011;4040;42.848;23.034;2022-11-06T13:26:21;6.30;;;3.50;;
7989;SDS011;4040;42.848;23.034;2022-11-06T13:32:18;4.05;;;3.65;;
7989;SDS011;4040;42.848;23.034;2022-11-06T13:38:12;4.53;;;4.03;;
7989;SDS011;4040;42.848;23.034;2022-11-06T13:44:04;8.23;;;5.00;;
7989;SDS011;4040;42.848;23.034;2022-11-06T13:49:58;4.60;;;3.70;;
7989;SDS011;4040;42.848;23.034;2022-11-06T13:55:56;4.60;;;3.90;;
7989;SDS011;4040;42.848;23.034;2022-11-06T14:01:55;5.65;;;3.95;;
7989;SDS011;4040;42.848;23.034;2022-11-06T14:07:52;9.90;;;5.43;;
7989;SDS011;4040;42.848;23.034;2022-11-06T14:13:54;6.43;;;4.33;;
7989;SDS011;4040;42.848;23.034;2022-11-06T14:19:59;5.87;;;4.00;;
7989;SDS011;4040;42.848;23.034;2022-11-06T14:25:59;8.60;;;7.43;;
7989;SDS011;4040;42.848;23.034;2022-11-06T14:31:58;5.50;;;5.00;;
7989;SDS011;4040;42.848;23.034;2022-11-06T14:37:48;4.80;;;4.30;;
7989;SDS011;4040;42.848;23.034;2022-11-06T14:43:38;8.43;;;3.90;;
7989;SDS011;4040;42.848;23.034;2022-11-06T14:49:38;135.50;;;69.37;;
7989;SDS011;4040;42.848;23.034;2022-11-06T14:55:33;38.83;;;24.23;;
7989;SDS011;4040;42.848;23.034;2022-11-06T15:01:30;5.20;;;4.43;;
7989;SDS011;4040;42.848;23.034;2022-11-06T15:13:41;10.30;;;7.30;;
7989;SDS011;4040;42.848;23.034;2022-11-06T15:19:32;9.57;;;8.10;;
7989;SDS011;4040;42.848;23.034;2022-11-06T15:25:26;8.80;;;5.13;;
7989;SDS011;4040;42.848;23.034;2022-11-06T15:31:15;9.00;;;5.40;;
7989;SDS011;4040;42.848;23.034;2022-11-06T15:37:08;12.33;;;8.43;;
7989;SDS011;4040;42.848;23.034;2022-11-06T15:43:00;14.73;;;9.50;;
7989;SDS011;4040;42.848;23.034;2022-11-06T15:49:07;27.83;;;14.93;;
7989;SDS011;4040;42.848;23.034;2022-11-06T15:55:04;26.67;;;17.33;;
7989;SDS011;4040;42.848;23.034;2022-11-06T16:00:54;19.38;;;11.70;;
7989;SDS011;4040;42.848;23.034;2022-11-06T16:06:43;43.43;;;24.87;;
7989;SDS011;4040;42.848;23.034;2022-11-06T16:12:34;56.43;;;34.77;;
7989;SDS011;4040;42.848;23.034;2022-11-06T16:22:45;163.13;;;84.53;;
7989;SDS011;4040;42.848;23.034;2022-11-06T16:28:35;69.97;;;43.23;;
7989;SDS011;4040;42.848;23.034;2022-11-06T16:34:34;67.77;;;35.53;;
7989;SDS011;4040;42.848;23.034;2022-11-06T16:40:46;79.23;;;40.97;;
7989;SDS011;4040;42.848;23.034;2022-11-06T16:52:57;74.67;;;46.93;;
7989;SDS011;4040;42.848;23.034;2022-11-06T16:58:47;81.90;;;46.20;;
7989;SDS011;4040;42.848;23.034;2022-11-06T17:04:39;71.70;;;43.53;;
7989;SDS011;4040;42.848;23.034;2022-11-06T17:10:36;50.47;;;28.33;;
7989;SDS011;4040;42.848;23.034;2022-11-06T17:16:26;53.30;;;33.67;;
7989;SDS011;4040;42.848;23.034;2022-11-06T17:22:16;53.57;;;33.10;;
7989;SDS011;4040;42.848;23.034;2022-11-06T17:28:07;48.37;;;32.13;;
7989;SDS011;4040;42.848;23.034;2022-11-06T17:33:55;39.00;;;23.87;;
7989;SDS011;4040;42.848;23.034;2022-11-06T17:39:44;33.57;;;22.97;;
7989;SDS011;4040;42.848;23.034;2022-11-06T17:45:34;34.87;;;22.93;;
7989;SDS011;4040;42.848;23.034;2022-11-06T17:51:24;45.03;;;25.13;;
7989;SDS011;4040;42.848;23.034;2022-11-06T17:57:30;38.97;;;21.77;;
7989;SDS011;4040;42.848;23.034;2022-11-06T18:03:21;20.73;;;14.93;;
7989;SDS011;4040;42.848;23.034;2022-11-06T18:09:10;19.73;;;13.40;;
7989;SDS011;4040;42.848;23.034;2022-11-06T18:14:59;21.93;;;15.33;;
7989;SDS011;4040;42.848;23.034;2022-11-06T18:25:11;22.10;;;15.70;;
7989;SDS011;4040;42.848;23.034;2022-11-06T18:31:00;25.30;;;16.73;;
7989;SDS011;4040;42.848;23.034;2022-11-06T18:36:49;27.70;;;19.33;;
7989;SDS011;4040;42.848;23.034;2022-11-06T18:42:39;41.20;;;20.87;;
7989;SDS011;4040;42.848;23.034;2022-11-06T18:48:29;79.87;;;44.33;;
7989;SDS011;4040;42.848;23.034;2022-11-06T18:54:18;52.53;;;31.70;;
7989;SDS011;4040;42.848;23.034;2022-11-06T19:00:09;43.67;;;28.97;;
7989;SDS011;4040;42.848;23.034;2022-11-06T19:05:59;33.97;;;19.83;;
7989;SDS011;4040;42.848;23.034;2022-11-06T19:11:47;39.93;;;23.40;;
7989;SDS011;4040;42.848;23.034;2022-11-06T19:17:37;39.90;;;24.73;;
7989;SDS011;4040;42.848;23.034;2022-11-06T19:27:48;84.60;;;43.37;;
7989;SDS011;4040;42.848;23.034;2022-11-06T19:33:38;42.67;;;25.73;;
7989;SDS011;4040;42.848;23.034;2022-11-06T19:39:26;28.50;;;18.33;;
7989;SDS011;4040;42.848;23.034;2022-11-06T19:45:15;36.77;;;23.13;;
7989;SDS011;4040;42.848;23.034;2022-11-06T19:51:09;50.10;;;25.17;;
7989;SDS011;4040;42.848;23.034;2022-11-06T19:56:58;40.00;;;23.07;;
7989;SDS011;4040;42.848;23.034;2022-11-06T20:02:47;44.53;;;25.23;;
7989;SDS011;4040;42.848;23.034;2022-11-06T20:08:37;34.87;;;20.67;;
7989;SDS011;4040;42.848;23.034;2022-11-06T20:14:36;29.70;;;18.93;;
7989;SDS011;4040;42.848;23.034;2022-11-06T20:20:25;36.17;;;21.47;;
7989;SDS011;4040;42.848;23.034;2022-11-06T20:30:37;40.67;;;24.43;;
7989;SDS011;4040;42.848;23.034;2022-11-06T20:36:27;44.23;;;25.67;;
7989;SDS011;4040;42.848;23.034;2022-11-06T20:42:17;37.37;;;24.17;;
7989;SDS011;4040;42.848;23.034;2022-11-06T20:48:08;39.97;;;22.47;;
7989;SDS011;4040;42.848;23.034;2022-11-06T20:53:56;34.80;;;22.43;;
7989;SDS011;4040;42.848;23.034;2022-11-06T20:59:45;37.30;;;22.93;;
7989;SDS011;4040;42.848;23.034;2022-11-06T21:05:35;37.43;;;23.43;;
7989;SDS011;4040;42.848;23.034;2022-11-06T21:11:24;40.47;;;23.60;;
7989;SDS011;4040;42.848;23.034;2022-11-06T21:17:14;36.70;;;21.77;;
7989;SDS011;4040;42.848;23.034;2022-11-06T21:23:04;45.30;;;23.93;;
7989;SDS011;4040;42.848;23.034;2022-11-06T21:33:16;38.60;;;21.30;;
7989;SDS011;4040;42.848;23.034;2022-11-06T21:39:07;31.70;;;21.67;;
7989;SDS011;4040;42.848;23.034;2022-11-06T21:45:01;35.70;;;22.60;;
7989;SDS011;4040;42.848;23.034;2022-11-06T21:50:50;38.07;;;22.73;;
7989;SDS011;4040;42.848;23.034;2022-11-06T21:56:40;35.83;;;22.03;;
7989;SDS011;4040;42.848;23.034;2022-11-06T22:02:30;35.33;;;21.93;;
7989;SDS011;4040;42.848;23.034;2022-11-06T22:08:18;35.70;;;22.23;;
7989;SDS011;4040;42.848;23.034;2022-11-06T22:14:28;40.67;;;23.90;;
7989;SDS011;4040;42.848;23.034;2022-11-06T22:20:17;41.17;;;22.73;;
7989;SDS011;4040;42.848;23.034;2022-11-06T22:26:06;63.10;;;28.93;;
7989;SDS011;4040;42.848;23.034;2022-11-06T22:36:03;41.80;;;22.40;;
7989;SDS011;4040;42.848;23.034;2022-11-06T22:41:53;44.40;;;25.90;;
7989;SDS011;4040;42.848;23.034;2022-11-06T22:47:42;22.13;;;15.67;;
7989;SDS011;4040;42.848;23.034;2022-11-06T22:53:33;37.47;;;21.27;;
7989;SDS011;4040;42.848;23.034;2022-11-06T22:59:23;23.63;;;15.67;;
7989;SDS011;4040;42.848;23.034;2022-11-06T23:08:34;21.87;;;15.30;;
7989;SDS011;4040;42.848;23.034;2022-11-06T23:14:24;24.33;;;16.53;;
7989;SDS011;4040;42.848;23.034;2022-11-06T23:20:13;22.20;;;13.93;;
7989;SDS011;4040;42.848;23.034;2022-11-06T23:26:10;25.17;;;15.87;;
7989;SDS011;4040;42.848;23.034;2022-11-06T23:31:59;21.77;;;14.93;;
7989;SDS011;4040;42.848;23.034;2022-11-06T23:37:48;22.33;;;15.73;;
7989;SDS011;4040;42.848;23.034;2022-11-06T23:43:39;22.20;;;16.10;;
7989;SDS011;4040;42.848;23.034;2022-11-06T23:49:27;22.43;;;14.37;;
7989;SDS011;4040;42.848;23.034;2022-11-06T23:55:16;26.90;;;16.13;;
